sensor_id;sensor_type;location;lat;lon;timestamp;P1;durP1;ratioP1;P2;durP2;ratioP2
71753;SDS011;59593;51.716;7.016;2023-04-08T00:00:04;24.70;;;11.57;;
71753;SDS011;59593;51.716;7.016;2023-04-08T00:02:32;15.07;;;12.10;;
71753;SDS011;59593;51.716;7.016;2023-04-08T00:04:58;24.87;;;11.70;;
71753;SDS011;59593;51.716;7.016;2023-04-08T00:07:23;23.83;;;11.27;;
71753;SDS011;59593;51.716;7.016;2023-04-08T00:09:49;31.90;;;10.73;;
71753;SDS011;59593;51.716;7.016;2023-04-08T00:12:15;15.20;;;10.40;;
71753;SDS011;59593;51.716;7.016;2023-04-08T00:14:41;27.10;;;10.70;;
71753;SDS011;59593;51.716;7.016;2023-04-08T00:17:06;10.60;;;9.60;;
71753;SDS011;59593;51.716;7.016;2023-04-08T00:19:32;11.67;;;9.30;;
71753;SDS011;59593;51.716;7.016;2023-04-08T00:21:58;9.90;;;8.87;;
71753;SDS011;59593;51.716;7.016;2023-04-08T00:24:24;9.97;;;8.97;;
71753;SDS011;59593;51.716;7.016;2023-04-08T00:26:50;9.20;;;8.30;;
71753;SDS011;59593;51.716;7.016;2023-04-08T00:29:16;10.53;;;8.97;;
71753;SDS011;59593;51.716;7.016;2023-04-08T00:31:41;10.30;;;9.30;;
71753;SDS011;59593;51.716;7.016;2023-04-08T00:34:07;9.73;;;8.73;;
71753;SDS011;59593;51.716;7.016;2023-04-08T00:36:33;9.83;;;8.83;;
71753;SDS011;59593;51.716;7.016;2023-04-08T00:39:00;11.73;;;9.50;;
71753;SDS011;59593;51.716;7.016;2023-04-08T00:41:25;10.13;;;9.13;;
71753;SDS011;59593;51.716;7.016;2023-04-08T00:43:51;10.30;;;9.00;;
71753;SDS011;59593;51.716;7.016;2023-04-08T00:46:18;9.63;;;8.73;;
71753;SDS011;59593;51.716;7.016;2023-04-08T00:48:44;10.93;;;8.87;;
71753;SDS011;59593;51.716;7.016;2023-04-08T00:51:10;10.80;;;9.13;;
71753;SDS011;59593;51.716;7.016;2023-04-08T00:53:36;8.30;;;7.50;;
71753;SDS011;59593;51.716;7.016;2023-04-08T00:56:02;8.80;;;8.00;;
71753;SDS011;59593;51.716;7.016;2023-04-08T00:58:27;8.10;;;7.40;;
71753;SDS011;59593;51.716;7.016;2023-04-08T01:00:57;8.73;;;7.57;;
71753;SDS011;59593;51.716;7.016;2023-04-08T01:03:54;9.17;;;8.20;;
71753;SDS011;59593;51.716;7.016;2023-04-08T01:06:35;8.30;;;7.53;;
71753;SDS011;59593;51.716;7.016;2023-04-08T01:09:07;7.90;;;7.20;;
71753;SDS011;59593;51.716;7.016;2023-04-08T01:11:34;8.30;;;7.50;;
71753;SDS011;59593;51.716;7.016;2023-04-08T01:14:05;7.93;;;7.13;;
71753;SDS011;59593;51.716;7.016;2023-04-08T01:16:34;11.03;;;8.63;;
71753;SDS011;59593;51.716;7.016;2023-04-08T01:19:05;12.67;;;9.37;;
71753;SDS011;59593;51.716;7.016;2023-04-08T01:21:34;10.50;;;9.30;;
71753;SDS011;59593;51.716;7.016;2023-04-08T01:26:44;13.00;;;11.00;;
71753;SDS011;59593;51.716;7.016;2023-04-08T01:29:10;15.77;;;11.67;;
71753;SDS011;59593;51.716;7.016;2023-04-08T01:31:38;22.30;;;14.73;;
71753;SDS011;59593;51.716;7.016;2023-04-08T01:34:06;22.03;;;13.67;;
71753;SDS011;59593;51.716;7.016;2023-04-08T01:36:33;17.60;;;12.93;;
71753;SDS011;59593;51.716;7.016;2023-04-08T01:39:01;16.90;;;12.43;;
71753;SDS011;59593;51.716;7.016;2023-04-08T01:41:29;27.27;;;12.87;;
71753;SDS011;59593;51.716;7.016;2023-04-08T01:43:58;19.17;;;12.37;;
71753;SDS011;59593;51.716;7.016;2023-04-08T01:46:24;27.17;;;11.37;;
71753;SDS011;59593;51.716;7.016;2023-04-08T01:48:51;16.57;;;10.97;;
71753;SDS011;59593;51.716;7.016;2023-04-08T01:51:18;28.80;;;10.80;;
71753;SDS011;59593;51.716;7.016;2023-04-08T01:53:44;32.80;;;11.10;;
71753;SDS011;59593;51.716;7.016;2023-04-08T01:56:13;32.30;;;12.47;;
71753;SDS011;59593;51.716;7.016;2023-04-08T01:58:45;28.17;;;12.80;;
71753;SDS011;59593;51.716;7.016;2023-04-08T02:01:16;21.77;;;10.50;;
71753;SDS011;59593;51.716;7.016;2023-04-08T02:03:44;26.73;;;10.40;;
71753;SDS011;59593;51.716;7.016;2023-04-08T02:06:11;19.33;;;10.30;;
71753;SDS011;59593;51.716;7.016;2023-04-08T02:08:37;18.13;;;10.63;;
71753;SDS011;59593;51.716;7.016;2023-04-08T02:11:03;25.83;;;10.13;;
71753;SDS011;59593;51.716;7.016;2023-04-08T02:13:29;86.23;;;12.90;;
71753;SDS011;59593;51.716;7.016;2023-04-08T02:15:56;20.30;;;10.30;;
71753;SDS011;59593;51.716;7.016;2023-04-08T02:19:01;27.57;;;10.30;;
71753;SDS011;59593;51.716;7.016;2023-04-08T02:21:37;22.70;;;10.27;;
71753;SDS011;59593;51.716;7.016;2023-04-08T02:24:08;22.63;;;10.53;;
71753;SDS011;59593;51.716;7.016;2023-04-08T02:26:37;14.10;;;10.20;;
71753;SDS011;59593;51.716;7.016;2023-04-08T02:29:03;10.43;;;9.30;;
71753;SDS011;59593;51.716;7.016;2023-04-08T02:31:30;10.10;;;8.90;;
71753;SDS011;59593;51.716;7.016;2023-04-08T02:33:58;11.60;;;8.63;;
71753;SDS011;59593;51.716;7.016;2023-04-08T02:36:24;9.17;;;8.27;;
71753;SDS011;59593;51.716;7.016;2023-04-08T02:38:50;9.93;;;7.80;;
71753;SDS011;59593;51.716;7.016;2023-04-08T02:41:16;7.67;;;6.97;;
71753;SDS011;59593;51.716;7.016;2023-04-08T02:43:42;10.20;;;8.23;;
71753;SDS011;59593;51.716;7.016;2023-04-08T02:46:07;8.47;;;7.60;;
71753;SDS011;59593;51.716;7.016;2023-04-08T02:48:34;8.47;;;7.77;;
71753;SDS011;59593;51.716;7.016;2023-04-08T02:51:00;8.63;;;7.43;;
71753;SDS011;59593;51.716;7.016;2023-04-08T02:53:26;7.70;;;6.93;;
71753;SDS011;59593;51.716;7.016;2023-04-08T02:55:51;7.93;;;7.20;;
71753;SDS011;59593;51.716;7.016;2023-04-08T02:58:17;8.03;;;7.23;;
71753;SDS011;59593;51.716;7.016;2023-04-08T03:00:43;7.83;;;7.07;;
71753;SDS011;59593;51.716;7.016;2023-04-08T03:03:08;8.20;;;7.40;;
71753;SDS011;59593;51.716;7.016;2023-04-08T03:05:34;7.50;;;6.80;;
71753;SDS011;59593;51.716;7.016;2023-04-08T03:07:59;7.20;;;6.40;;
71753;SDS011;59593;51.716;7.016;2023-04-08T03:10:25;7.00;;;6.40;;
71753;SDS011;59593;51.716;7.016;2023-04-08T03:12:51;7.60;;;6.70;;
71753;SDS011;59593;51.716;7.016;2023-04-08T03:15:16;7.60;;;6.90;;
71753;SDS011;59593;51.716;7.016;2023-04-08T03:17:42;7.87;;;7.17;;
71753;SDS011;59593;51.716;7.016;2023-04-08T03:20:07;7.47;;;6.00;;
71753;SDS011;59593;51.716;7.016;2023-04-08T03:22:34;7.90;;;6.10;;
71753;SDS011;59593;51.716;7.016;2023-04-08T03:25:00;7.03;;;6.33;;
71753;SDS011;59593;51.716;7.016;2023-04-08T03:27:26;7.60;;;6.90;;
71753;SDS011;59593;51.716;7.016;2023-04-08T03:29:52;6.93;;;6.20;;
71753;SDS011;59593;51.716;7.016;2023-04-08T03:32:18;7.20;;;6.60;;
71753;SDS011;59593;51.716;7.016;2023-04-08T03:34:44;6.87;;;6.27;;
71753;SDS011;59593;51.716;7.016;2023-04-08T03:37:10;8.93;;;6.93;;
71753;SDS011;59593;51.716;7.016;2023-04-08T03:39:36;7.80;;;7.00;;
71753;SDS011;59593;51.716;7.016;2023-04-08T03:42:02;6.70;;;6.10;;
71753;SDS011;59593;51.716;7.016;2023-04-08T03:44:28;7.40;;;6.70;;
71753;SDS011;59593;51.716;7.016;2023-04-08T03:46:53;7.33;;;6.67;;
71753;SDS011;59593;51.716;7.016;2023-04-08T03:49:19;8.00;;;6.67;;
71753;SDS011;59593;51.716;7.016;2023-04-08T03:51:45;8.47;;;6.97;;
71753;SDS011;59593;51.716;7.016;2023-04-08T03:54:10;7.43;;;6.73;;
71753;SDS011;59593;51.716;7.016;2023-04-08T03:56:36;6.90;;;6.20;;
71753;SDS011;59593;51.716;7.016;2023-04-08T03:59:01;7.13;;;6.43;;
71753;SDS011;59593;51.716;7.016;2023-04-08T04:01:27;7.40;;;6.70;;
71753;SDS011;59593;51.716;7.016;2023-04-08T04:03:54;7.87;;;7.17;;
71753;SDS011;59593;51.716;7.016;2023-04-08T04:06:19;7.00;;;6.30;;
71753;SDS011;59593;51.716;7.016;2023-04-08T04:08:45;8.20;;;6.33;;
71753;SDS011;59593;51.716;7.016;2023-04-08T04:11:11;7.10;;;6.50;;
71753;SDS011;59593;51.716;7.016;2023-04-08T04:13:36;8.37;;;5.97;;
71753;SDS011;59593;51.716;7.016;2023-04-08T04:16:02;7.00;;;6.40;;
71753;SDS011;59593;51.716;7.016;2023-04-08T04:18:27;7.13;;;6.43;;
71753;SDS011;59593;51.716;7.016;2023-04-08T04:20:53;6.80;;;6.20;;
71753;SDS011;59593;51.716;7.016;2023-04-08T04:23:18;7.47;;;6.77;;
71753;SDS011;59593;51.716;7.016;2023-04-08T04:25:44;6.50;;;6.00;;
71753;SDS011;59593;51.716;7.016;2023-04-08T04:28:10;7.07;;;6.47;;
71753;SDS011;59593;51.716;7.016;2023-04-08T04:30:36;7.03;;;6.20;;
71753;SDS011;59593;51.716;7.016;2023-04-08T04:33:03;7.27;;;6.60;;
71753;SDS011;59593;51.716;7.016;2023-04-08T04:35:29;6.80;;;6.20;;
71753;SDS011;59593;51.716;7.016;2023-04-08T04:37:55;7.10;;;6.40;;
71753;SDS011;59593;51.716;7.016;2023-04-08T04:40:20;7.07;;;6.40;;
71753;SDS011;59593;51.716;7.016;2023-04-08T04:42:46;7.00;;;6.40;;
71753;SDS011;59593;51.716;7.016;2023-04-08T04:45:12;7.67;;;6.93;;
71753;SDS011;59593;51.716;7.016;2023-04-08T04:47:38;7.30;;;6.60;;
71753;SDS011;59593;51.716;7.016;2023-04-08T04:50:03;7.90;;;7.20;;
71753;SDS011;59593;51.716;7.016;2023-04-08T04:52:30;7.73;;;7.03;;
71753;SDS011;59593;51.716;7.016;2023-04-08T04:54:58;7.40;;;6.70;;
71753;SDS011;59593;51.716;7.016;2023-04-08T04:57:24;7.20;;;6.60;;
71753;SDS011;59593;51.716;7.016;2023-04-08T04:59:50;7.53;;;6.83;;
71753;SDS011;59593;51.716;7.016;2023-04-08T05:02:15;7.83;;;7.13;;
71753;SDS011;59593;51.716;7.016;2023-04-08T05:04:41;7.40;;;6.70;;
71753;SDS011;59593;51.716;7.016;2023-04-08T05:07:06;9.10;;;7.13;;
71753;SDS011;59593;51.716;7.016;2023-04-08T05:09:32;8.17;;;7.20;;
71753;SDS011;59593;51.716;7.016;2023-04-08T05:11:57;8.23;;;7.20;;
71753;SDS011;59593;51.716;7.016;2023-04-08T05:14:23;7.90;;;7.10;;
71753;SDS011;59593;51.716;7.016;2023-04-08T05:16:49;6.90;;;6.30;;
71753;SDS011;59593;51.716;7.016;2023-04-08T05:19:14;8.43;;;7.63;;
71753;SDS011;59593;51.716;7.016;2023-04-08T05:21:40;8.67;;;7.87;;
71753;SDS011;59593;51.716;7.016;2023-04-08T05:24:05;9.60;;;8.60;;
71753;SDS011;59593;51.716;7.016;2023-04-08T05:26:31;8.47;;;7.67;;
71753;SDS011;59593;51.716;7.016;2023-04-08T05:28:57;9.33;;;8.43;;
71753;SDS011;59593;51.716;7.016;2023-04-08T05:31:22;10.47;;;9.37;;
71753;SDS011;59593;51.716;7.016;2023-04-08T05:33:48;9.27;;;8.40;;
71753;SDS011;59593;51.716;7.016;2023-04-08T05:36:13;8.83;;;7.93;;
71753;SDS011;59593;51.716;7.016;2023-04-08T05:38:39;9.93;;;8.97;;
71753;SDS011;59593;51.716;7.016;2023-04-08T05:41:07;11.23;;;9.80;;
71753;SDS011;59593;51.716;7.016;2023-04-08T05:43:32;11.03;;;9.93;;
71753;SDS011;59593;51.716;7.016;2023-04-08T05:45:58;11.53;;;10.10;;
71753;SDS011;59593;51.716;7.016;2023-04-08T05:48:24;11.30;;;9.80;;
71753;SDS011;59593;51.716;7.016;2023-04-08T05:50:49;11.53;;;9.90;;
71753;SDS011;59593;51.716;7.016;2023-04-08T05:53:15;11.23;;;9.73;;
71753;SDS011;59593;51.716;7.016;2023-04-08T05:55:41;11.53;;;10.33;;
71753;SDS011;59593;51.716;7.016;2023-04-08T05:58:06;15.03;;;12.33;;
71753;SDS011;59593;51.716;7.016;2023-04-08T06:00:32;13.70;;;12.30;;
71753;SDS011;59593;51.716;7.016;2023-04-08T06:02:58;14.07;;;12.20;;
71753;SDS011;59593;51.716;7.016;2023-04-08T06:05:24;14.03;;;12.60;;
71753;SDS011;59593;51.716;7.016;2023-04-08T06:07:49;17.37;;;13.13;;
71753;SDS011;59593;51.716;7.016;2023-04-08T06:10:15;14.00;;;12.50;;
71753;SDS011;59593;51.716;7.016;2023-04-08T06:12:41;13.53;;;11.80;;
71753;SDS011;59593;51.716;7.016;2023-04-08T06:15:07;15.57;;;13.40;;
71753;SDS011;59593;51.716;7.016;2023-04-08T06:17:37;16.30;;;13.40;;
71753;SDS011;59593;51.716;7.016;2023-04-08T06:20:03;21.57;;;13.67;;
71753;SDS011;59593;51.716;7.016;2023-04-08T06:22:33;16.33;;;13.03;;
71753;SDS011;59593;51.716;7.016;2023-04-08T06:25:00;16.83;;;14.00;;
71753;SDS011;59593;51.716;7.016;2023-04-08T06:27:26;18.33;;;14.57;;
71753;SDS011;59593;51.716;7.016;2023-04-08T06:29:51;19.00;;;14.23;;
71753;SDS011;59593;51.716;7.016;2023-04-08T06:32:17;18.43;;;15.20;;
71753;SDS011;59593;51.716;7.016;2023-04-08T06:34:43;19.17;;;13.90;;
71753;SDS011;59593;51.716;7.016;2023-04-08T06:37:10;16.60;;;14.83;;
71753;SDS011;59593;51.716;7.016;2023-04-08T06:39:35;15.07;;;13.57;;
71753;SDS011;59593;51.716;7.016;2023-04-08T06:42:01;15.87;;;14.17;;
71753;SDS011;59593;51.716;7.016;2023-04-08T06:44:26;18.40;;;14.97;;
71753;SDS011;59593;51.716;7.016;2023-04-08T06:46:52;17.67;;;15.07;;
71753;SDS011;59593;51.716;7.016;2023-04-08T06:49:17;16.30;;;14.60;;
71753;SDS011;59593;51.716;7.016;2023-04-08T06:51:43;17.43;;;13.97;;
71753;SDS011;59593;51.716;7.016;2023-04-08T06:54:09;15.63;;;13.63;;
71753;SDS011;59593;51.716;7.016;2023-04-08T06:56:35;15.23;;;13.63;;
71753;SDS011;59593;51.716;7.016;2023-04-08T06:59:01;17.10;;;13.63;;
71753;SDS011;59593;51.716;7.016;2023-04-08T07:01:27;15.87;;;13.70;;
71753;SDS011;59593;51.716;7.016;2023-04-08T07:03:53;17.67;;;15.00;;
71753;SDS011;59593;51.716;7.016;2023-04-08T07:06:18;18.07;;;15.03;;
71753;SDS011;59593;51.716;7.016;2023-04-08T07:08:44;16.23;;;14.53;;
71753;SDS011;59593;51.716;7.016;2023-04-08T07:11:10;16.60;;;14.73;;
71753;SDS011;59593;51.716;7.016;2023-04-08T07:13:36;15.73;;;13.87;;
71753;SDS011;59593;51.716;7.016;2023-04-08T07:16:01;16.40;;;14.70;;
71753;SDS011;59593;51.716;7.016;2023-04-08T07:18:27;17.03;;;14.30;;
71753;SDS011;59593;51.716;7.016;2023-04-08T07:20:53;14.30;;;12.90;;
71753;SDS011;59593;51.716;7.016;2023-04-08T07:23:19;15.93;;;13.23;;
71753;SDS011;59593;51.716;7.016;2023-04-08T07:25:45;13.83;;;12.20;;
71753;SDS011;59593;51.716;7.016;2023-04-08T07:28:11;15.43;;;13.20;;
71753;SDS011;59593;51.716;7.016;2023-04-08T07:30:36;15.63;;;13.33;;
71753;SDS011;59593;51.716;7.016;2023-04-08T07:33:02;15.77;;;13.13;;
71753;SDS011;59593;51.716;7.016;2023-04-08T07:35:27;15.37;;;12.47;;
71753;SDS011;59593;51.716;7.016;2023-04-08T07:37:53;15.03;;;12.23;;
71753;SDS011;59593;51.716;7.016;2023-04-08T07:40:19;14.97;;;12.33;;
71753;SDS011;59593;51.716;7.016;2023-04-08T07:42:45;16.33;;;11.97;;
71753;SDS011;59593;51.716;7.016;2023-04-08T07:45:11;13.67;;;12.23;;
71753;SDS011;59593;51.716;7.016;2023-04-08T07:47:36;13.47;;;11.23;;
71753;SDS011;59593;51.716;7.016;2023-04-08T07:50:02;13.33;;;11.70;;
71753;SDS011;59593;51.716;7.016;2023-04-08T07:52:31;14.20;;;12.60;;
71753;SDS011;59593;51.716;7.016;2023-04-08T07:54:57;14.27;;;12.23;;
71753;SDS011;59593;51.716;7.016;2023-04-08T07:57:23;13.70;;;12.20;;
71753;SDS011;59593;51.716;7.016;2023-04-08T07:59:50;16.30;;;11.80;;
71753;SDS011;59593;51.716;7.016;2023-04-08T08:02:15;14.50;;;11.90;;
71753;SDS011;59593;51.716;7.016;2023-04-08T08:04:41;14.80;;;12.37;;
71753;SDS011;59593;51.716;7.016;2023-04-08T08:07:07;14.63;;;11.40;;
71753;SDS011;59593;51.716;7.016;2023-04-08T08:09:32;12.90;;;11.50;;
71753;SDS011;59593;51.716;7.016;2023-04-08T08:11:58;13.30;;;11.90;;
71753;SDS011;59593;51.716;7.016;2023-04-08T08:14:23;15.00;;;11.97;;
71753;SDS011;59593;51.716;7.016;2023-04-08T08:16:50;14.10;;;11.60;;
71753;SDS011;59593;51.716;7.016;2023-04-08T08:19:16;14.23;;;11.80;;
71753;SDS011;59593;51.716;7.016;2023-04-08T08:21:42;11.03;;;9.80;;
71753;SDS011;59593;51.716;7.016;2023-04-08T08:24:07;12.07;;;10.80;;
71753;SDS011;59593;51.716;7.016;2023-04-08T08:26:33;12.80;;;10.20;;
71753;SDS011;59593;51.716;7.016;2023-04-08T08:29:01;10.97;;;9.87;;
71753;SDS011;59593;51.716;7.016;2023-04-08T08:31:26;12.13;;;9.90;;
71753;SDS011;59593;51.716;7.016;2023-04-08T08:33:52;11.63;;;9.87;;
71753;SDS011;59593;51.716;7.016;2023-04-08T08:36:17;12.80;;;10.30;;
71753;SDS011;59593;51.716;7.016;2023-04-08T08:38:43;11.47;;;10.27;;
71753;SDS011;59593;51.716;7.016;2023-04-08T08:41:09;11.33;;;9.80;;
71753;SDS011;59593;51.716;7.016;2023-04-08T08:43:35;11.67;;;9.93;;
71753;SDS011;59593;51.716;7.016;2023-04-08T08:46:02;13.20;;;10.40;;
71753;SDS011;59593;51.716;7.016;2023-04-08T08:48:27;11.47;;;9.77;;
71753;SDS011;59593;51.716;7.016;2023-04-08T08:50:53;10.57;;;9.47;;
71753;SDS011;59593;51.716;7.016;2023-04-08T08:53:19;10.53;;;9.20;;
71753;SDS011;59593;51.716;7.016;2023-04-08T08:55:47;11.57;;;9.13;;
71753;SDS011;59593;51.716;7.016;2023-04-08T08:58:13;10.43;;;9.33;;
71753;SDS011;59593;51.716;7.016;2023-04-08T09:00:39;11.73;;;9.90;;
71753;SDS011;59593;51.716;7.016;2023-04-08T09:03:15;11.27;;;9.83;;
71753;SDS011;59593;51.716;7.016;2023-04-08T09:08:30;12.97;;;9.80;;
71753;SDS011;59593;51.716;7.016;2023-04-08T09:13:36;9.80;;;8.80;;
71753;SDS011;59593;51.716;7.016;2023-04-08T09:16:03;11.23;;;9.10;;
71753;SDS011;59593;51.716;7.016;2023-04-08T09:18:34;9.77;;;8.77;;
71753;SDS011;59593;51.716;7.016;2023-04-08T09:21:01;10.07;;;9.03;;
71753;SDS011;59593;51.716;7.016;2023-04-08T09:23:45;9.30;;;8.40;;
71753;SDS011;59593;51.716;7.016;2023-04-08T09:26:13;11.07;;;8.30;;
71753;SDS011;59593;51.716;7.016;2023-04-08T09:28:41;12.17;;;9.00;;
71753;SDS011;59593;51.716;7.016;2023-04-08T09:34:12;9.70;;;7.87;;
71753;SDS011;59593;51.716;7.016;2023-04-08T09:36:40;7.97;;;7.17;;
71753;SDS011;59593;51.716;7.016;2023-04-08T09:39:06;9.93;;;8.10;;
71753;SDS011;59593;51.716;7.016;2023-04-08T09:41:35;10.00;;;7.50;;
71753;SDS011;59593;51.716;7.016;2023-04-08T09:44:07;8.30;;;6.97;;
71753;SDS011;59593;51.716;7.016;2023-04-08T09:46:46;7.40;;;6.63;;
71753;SDS011;59593;51.716;7.016;2023-04-08T09:52:02;7.33;;;6.33;;
71753;SDS011;59593;51.716;7.016;2023-04-08T09:54:59;8.60;;;7.07;;
71753;SDS011;59593;51.716;7.016;2023-04-08T09:57:51;7.80;;;7.00;;
71753;SDS011;59593;51.716;7.016;2023-04-08T10:00:31;8.40;;;7.30;;
71753;SDS011;59593;51.716;7.016;2023-04-08T10:05:43;8.27;;;6.53;;
71753;SDS011;59593;51.716;7.016;2023-04-08T10:08:10;8.17;;;7.37;;
71753;SDS011;59593;51.716;7.016;2023-04-08T10:10:39;8.37;;;7.20;;
71753;SDS011;59593;51.716;7.016;2023-04-08T10:13:06;8.27;;;6.97;;
71753;SDS011;59593;51.716;7.016;2023-04-08T10:15:33;7.80;;;7.00;;
71753;SDS011;59593;51.716;7.016;2023-04-08T10:25:33;7.97;;;7.03;;
71753;SDS011;59593;51.716;7.016;2023-04-08T10:30:46;8.70;;;7.47;;
71753;SDS011;59593;51.716;7.016;2023-04-08T10:38:19;10.13;;;7.27;;
71753;SDS011;59593;51.716;7.016;2023-04-08T10:40:46;9.87;;;8.00;;
71753;SDS011;59593;51.716;7.016;2023-04-08T10:43:13;9.27;;;7.33;;
71753;SDS011;59593;51.716;7.016;2023-04-08T10:45:40;8.80;;;7.90;;
71753;SDS011;59593;51.716;7.016;2023-04-08T10:48:13;8.57;;;7.67;;
71753;SDS011;59593;51.716;7.016;2023-04-08T10:50:41;8.27;;;7.40;;
71753;SDS011;59593;51.716;7.016;2023-04-08T10:53:08;7.83;;;7.03;;
71753;SDS011;59593;51.716;7.016;2023-04-08T10:55:35;9.83;;;8.03;;
71753;SDS011;59593;51.716;7.016;2023-04-08T10:58:07;7.90;;;7.10;;
71753;SDS011;59593;51.716;7.016;2023-04-08T11:00:35;9.57;;;7.30;;
71753;SDS011;59593;51.716;7.016;2023-04-08T11:03:09;7.87;;;7.07;;
71753;SDS011;59593;51.716;7.016;2023-04-08T11:05:35;7.73;;;6.87;;
71753;SDS011;59593;51.716;7.016;2023-04-08T11:08:02;7.60;;;6.80;;
71753;SDS011;59593;51.716;7.016;2023-04-08T11:10:29;8.73;;;7.17;;
71753;SDS011;59593;51.716;7.016;2023-04-08T11:12:55;8.23;;;7.43;;
71753;SDS011;59593;51.716;7.016;2023-04-08T11:15:22;8.17;;;7.10;;
71753;SDS011;59593;51.716;7.016;2023-04-08T11:17:48;9.50;;;7.70;;
71753;SDS011;59593;51.716;7.016;2023-04-08T11:20:14;8.33;;;7.27;;
71753;SDS011;59593;51.716;7.016;2023-04-08T11:22:40;7.80;;;7.00;;
71753;SDS011;59593;51.716;7.016;2023-04-08T11:25:08;7.97;;;6.70;;
71753;SDS011;59593;51.716;7.016;2023-04-08T11:27:34;10.50;;;7.10;;
71753;SDS011;59593;51.716;7.016;2023-04-08T11:30:00;9.17;;;7.40;;
71753;SDS011;59593;51.716;7.016;2023-04-08T11:32:27;8.30;;;7.10;;
71753;SDS011;59593;51.716;7.016;2023-04-08T11:34:55;7.83;;;6.70;;
71753;SDS011;59593;51.716;7.016;2023-04-08T11:37:24;7.40;;;6.60;;
71753;SDS011;59593;51.716;7.016;2023-04-08T11:39:50;7.20;;;6.50;;
71753;SDS011;59593;51.716;7.016;2023-04-08T11:42:31;6.73;;;6.03;;
71753;SDS011;59593;51.716;7.016;2023-04-08T11:44:57;6.80;;;6.10;;
71753;SDS011;59593;51.716;7.016;2023-04-08T11:47:32;7.50;;;6.70;;
71753;SDS011;59593;51.716;7.016;2023-04-08T11:49:59;6.83;;;6.13;;
71753;SDS011;59593;51.716;7.016;2023-04-08T11:52:41;8.57;;;6.83;;
71753;SDS011;59593;51.716;7.016;2023-04-08T11:55:12;7.47;;;6.60;;
71753;SDS011;59593;51.716;7.016;2023-04-08T11:57:49;7.25;;;6.55;;
71753;SDS011;59593;51.716;7.016;2023-04-08T12:00:16;7.95;;;7.10;;
71753;SDS011;59593;51.716;7.016;2023-04-08T12:02:43;9.10;;;6.97;;
71753;SDS011;59593;51.716;7.016;2023-04-08T12:05:09;7.30;;;6.60;;
71753;SDS011;59593;51.716;7.016;2023-04-08T12:07:34;7.30;;;6.33;;
71753;SDS011;59593;51.716;7.016;2023-04-08T12:10:01;7.80;;;6.77;;
71753;SDS011;59593;51.716;7.016;2023-04-08T12:12:27;9.07;;;6.93;;
71753;SDS011;59593;51.716;7.016;2023-04-08T12:14:52;8.87;;;6.90;;
71753;SDS011;59593;51.716;7.016;2023-04-08T12:17:18;8.27;;;7.30;;
71753;SDS011;59593;51.716;7.016;2023-04-08T12:19:46;8.17;;;7.37;;
71753;SDS011;59593;51.716;7.016;2023-04-08T12:22:12;8.77;;;7.80;;
71753;SDS011;59593;51.716;7.016;2023-04-08T12:24:37;8.23;;;7.43;;
71753;SDS011;59593;51.716;7.016;2023-04-08T12:27:03;11.83;;;7.97;;
71753;SDS011;59593;51.716;7.016;2023-04-08T12:29:29;8.77;;;7.40;;
71753;SDS011;59593;51.716;7.016;2023-04-08T12:31:55;8.50;;;7.63;;
71753;SDS011;59593;51.716;7.016;2023-04-08T12:34:21;9.80;;;8.90;;
71753;SDS011;59593;51.716;7.016;2023-04-08T12:36:46;8.80;;;7.97;;
71753;SDS011;59593;51.716;7.016;2023-04-08T12:39:13;11.93;;;9.40;;
71753;SDS011;59593;51.716;7.016;2023-04-08T12:41:39;10.20;;;9.20;;
71753;SDS011;59593;51.716;7.016;2023-04-08T12:44:05;10.67;;;9.57;;
71753;SDS011;59593;51.716;7.016;2023-04-08T12:46:30;12.57;;;10.63;;
71753;SDS011;59593;51.716;7.016;2023-04-08T12:48:56;12.43;;;10.57;;
71753;SDS011;59593;51.716;7.016;2023-04-08T12:51:22;13.63;;;11.30;;
71753;SDS011;59593;51.716;7.016;2023-04-08T12:53:50;14.83;;;11.20;;
71753;SDS011;59593;51.716;7.016;2023-04-08T12:56:16;11.67;;;10.47;;
71753;SDS011;59593;51.716;7.016;2023-04-08T12:58:41;12.40;;;11.10;;
71753;SDS011;59593;51.716;7.016;2023-04-08T13:01:07;13.23;;;11.83;;
71753;SDS011;59593;51.716;7.016;2023-04-08T13:03:33;12.83;;;11.47;;
71753;SDS011;59593;51.716;7.016;2023-04-08T13:06:01;12.37;;;10.83;;
71753;SDS011;59593;51.716;7.016;2023-04-08T13:08:27;13.17;;;10.53;;
71753;SDS011;59593;51.716;7.016;2023-04-08T13:10:53;11.73;;;10.53;;
71753;SDS011;59593;51.716;7.016;2023-04-08T13:13:19;11.73;;;10.53;;
71753;SDS011;59593;51.716;7.016;2023-04-08T13:15:44;12.83;;;11.13;;
71753;SDS011;59593;51.716;7.016;2023-04-08T13:18:11;12.57;;;11.27;;
71753;SDS011;59593;51.716;7.016;2023-04-08T13:20:36;13.60;;;10.67;;
71753;SDS011;59593;51.716;7.016;2023-04-08T13:23:02;12.53;;;11.17;;
71753;SDS011;59593;51.716;7.016;2023-04-08T13:25:28;12.37;;;10.70;;
71753;SDS011;59593;51.716;7.016;2023-04-08T13:27:53;11.97;;;10.67;;
71753;SDS011;59593;51.716;7.016;2023-04-08T13:30:19;12.20;;;10.90;;
71753;SDS011;59593;51.716;7.016;2023-04-08T13:32:44;12.43;;;10.77;;
71753;SDS011;59593;51.716;7.016;2023-04-08T13:35:10;11.90;;;10.60;;
71753;SDS011;59593;51.716;7.016;2023-04-08T13:37:35;13.50;;;10.77;;
71753;SDS011;59593;51.716;7.016;2023-04-08T13:40:01;13.40;;;10.67;;
71753;SDS011;59593;51.716;7.016;2023-04-08T13:42:27;12.87;;;10.50;;
71753;SDS011;59593;51.716;7.016;2023-04-08T13:44:55;11.33;;;10.23;;
71753;SDS011;59593;51.716;7.016;2023-04-08T13:47:22;11.27;;;10.07;;
71753;SDS011;59593;51.716;7.016;2023-04-08T13:49:47;11.83;;;10.60;;
71753;SDS011;59593;51.716;7.016;2023-04-08T13:52:13;16.57;;;11.80;;
71753;SDS011;59593;51.716;7.016;2023-04-08T13:54:39;13.47;;;11.43;;
71753;SDS011;59593;51.716;7.016;2023-04-08T13:57:05;12.67;;;11.37;;
71753;SDS011;59593;51.716;7.016;2023-04-08T13:59:30;12.47;;;11.17;;
71753;SDS011;59593;51.716;7.016;2023-04-08T14:01:56;15.67;;;11.07;;
71753;SDS011;59593;51.716;7.016;2023-04-08T14:04:22;14.00;;;11.57;;
71753;SDS011;59593;51.716;7.016;2023-04-08T14:06:48;13.53;;;11.50;;
71753;SDS011;59593;51.716;7.016;2023-04-08T14:09:18;13.87;;;12.37;;
71753;SDS011;59593;51.716;7.016;2023-04-08T14:11:44;14.83;;;11.67;;
71753;SDS011;59593;51.716;7.016;2023-04-08T14:14:10;14.40;;;12.13;;
71753;SDS011;59593;51.716;7.016;2023-04-08T14:16:36;12.27;;;10.73;;
71753;SDS011;59593;51.716;7.016;2023-04-08T14:19:02;13.23;;;11.37;;
71753;SDS011;59593;51.716;7.016;2023-04-08T14:21:29;13.13;;;11.27;;
71753;SDS011;59593;51.716;7.016;2023-04-08T14:23:55;14.87;;;11.50;;
71753;SDS011;59593;51.716;7.016;2023-04-08T14:26:21;12.70;;;11.40;;
71753;SDS011;59593;51.716;7.016;2023-04-08T14:28:47;14.03;;;11.40;;
71753;SDS011;59593;51.716;7.016;2023-04-08T14:31:13;14.10;;;11.63;;
71753;SDS011;59593;51.716;7.016;2023-04-08T14:33:38;13.10;;;11.03;;
71753;SDS011;59593;51.716;7.016;2023-04-08T14:36:04;13.07;;;11.33;;
71753;SDS011;59593;51.716;7.016;2023-04-08T14:38:30;13.47;;;11.97;;
71753;SDS011;59593;51.716;7.016;2023-04-08T14:40:56;21.27;;;13.43;;
71753;SDS011;59593;51.716;7.016;2023-04-08T14:43:22;15.20;;;11.97;;
71753;SDS011;59593;51.716;7.016;2023-04-08T14:45:51;13.50;;;11.50;;
71753;SDS011;59593;51.716;7.016;2023-04-08T14:48:16;13.43;;;11.83;;
71753;SDS011;59593;51.716;7.016;2023-04-08T14:50:42;12.80;;;11.50;;
71753;SDS011;59593;51.716;7.016;2023-04-08T14:53:08;14.97;;;11.80;;
71753;SDS011;59593;51.716;7.016;2023-04-08T14:55:35;12.90;;;11.50;;
71753;SDS011;59593;51.716;7.016;2023-04-08T14:58:00;13.37;;;11.77;;
71753;SDS011;59593;51.716;7.016;2023-04-08T15:00:26;13.40;;;12.00;;
71753;SDS011;59593;51.716;7.016;2023-04-08T15:02:52;15.40;;;12.57;;